sensor_id;sensor_type;location;lat;lon;timestamp;temperature;humidity
18163;DHT22;9206;50.994;4.538;2024-02-15T00:00:46;12.90;99.90
18163;DHT22;9206;50.994;4.538;2024-02-15T00:03:35;12.80;99.90
18163;DHT22;9206;50.994;4.538;2024-02-15T00:06:25;12.80;99.90
18163;DHT22;9206;50.994;4.538;2024-02-15T00:09:12;12.90;99.90
18163;DHT22;9206;50.994;4.538;2024-02-15T00:12:00;12.90;99.90
18163;DHT22;9206;50.994;4.538;2024-02-15T00:14:51;12.90;99.90
18163;DHT22;9206;50.994;4.538;2024-02-15T00:17:39;12.90;99.90
18163;DHT22;9206;50.994;4.538;2024-02-15T00:20:29;13.00;99.90
18163;DHT22;9206;50.994;4.538;2024-02-15T00:23:19;13.00;99.90
18163;DHT22;9206;50.994;4.538;2024-02-15T00:26:09;13.00;99.90
18163;DHT22;9206;50.994;4.538;2024-02-15T00:28:58;13.00;99.90
18163;DHT22;9206;50.994;4.538;2024-02-15T00:31:48;13.10;99.90
18163;DHT22;9206;50.994;4.538;2024-02-15T00:34:38;13.00;99.90
18163;DHT22;9206;50.994;4.538;2024-02-15T00:37:31;13.10;99.90
18163;DHT22;9206;50.994;4.538;2024-02-15T00:40:18;13.10;99.90
18163;DHT22;9206;50.994;4.538;2024-02-15T00:43:05;13.10;99.90
18163;DHT22;9206;50.994;4.538;2024-02-15T00:45:54;13.10;99.90
18163;DHT22;9206;50.994;4.538;2024-02-15T00:48:45;13.10;99.90
18163;DHT22;9206;50.994;4.538;2024-02-15T00:51:36;13.10;99.90
18163;DHT22;9206;50.994;4.538;2024-02-15T00:54:26;13.10;99.90
18163;DHT22;9206;50.994;4.538;2024-02-15T00:57:16;13.10;99.90
18163;DHT22;9206;50.994;4.538;2024-02-15T01:00:04;13.10;99.90
18163;DHT22;9206;50.994;4.538;2024-02-15T01:02:52;13.10;99.90
18163;DHT22;9206;50.994;4.538;2024-02-15T01:05:42;13.20;99.90
18163;DHT22;9206;50.994;4.538;2024-02-15T01:08:29;13.20;99.90
18163;DHT22;9206;50.994;4.538;2024-02-15T01:11:17;13.20;99.90
18163;DHT22;9206;50.994;4.538;2024-02-15T01:14:07;13.20;99.90
18163;DHT22;9206;50.994;4.538;2024-02-15T01:16:58;13.20;99.90
18163;DHT22;9206;50.994;4.538;2024-02-15T01:19:47;13.20;99.90
18163;DHT22;9206;50.994;4.538;2024-02-15T01:22:35;13.10;99.90
18163;DHT22;9206;50.994;4.538;2024-02-15T01:25:23;13.20;99.90
18163;DHT22;9206;50.994;4.538;2024-02-15T01:28:10;13.20;99.90
18163;DHT22;9206;50.994;4.538;2024-02-15T01:31:01;13.20;99.90
18163;DHT22;9206;50.994;4.538;2024-02-15T01:33:51;13.20;99.90
18163;DHT22;9206;50.994;4.538;2024-02-15T01:36:41;13.20;99.90
18163;DHT22;9206;50.994;4.538;2024-02-15T01:39:33;13.20;99.90
18163;DHT22;9206;50.994;4.538;2024-02-15T01:42:23;13.10;99.90
18163;DHT22;9206;50.994;4.538;2024-02-15T01:45:13;13.10;99.90
18163;DHT22;9206;50.994;4.538;2024-02-15T01:48:03;13.10;99.90
18163;DHT22;9206;50.994;4.538;2024-02-15T01:50:51;13.20;99.90
18163;DHT22;9206;50.994;4.538;2024-02-15T01:53:42;13.20;99.90
18163;DHT22;9206;50.994;4.538;2024-02-15T01:56:32;13.10;99.90
18163;DHT22;9206;50.994;4.538;2024-02-15T01:59:23;13.10;99.90
18163;DHT22;9206;50.994;4.538;2024-02-15T02:02:13;13.10;99.90
18163;DHT22;9206;50.994;4.538;2024-02-15T02:05:03;13.10;99.90
18163;DHT22;9206;50.994;4.538;2024-02-15T02:07:50;13.00;99.90
18163;DHT22;9206;50.994;4.538;2024-02-15T02:10:43;13.10;99.90
18163;DHT22;9206;50.994;4.538;2024-02-15T02:13:35;13.00;99.90
18163;DHT22;9206;50.994;4.538;2024-02-15T02:16:28;13.10;99.90
18163;DHT22;9206;50.994;4.538;2024-02-15T02:19:19;13.10;99.90
18163;DHT22;9206;50.994;4.538;2024-02-15T02:22:09;13.20;99.90
18163;DHT22;9206;50.994;4.538;2024-02-15T02:25:07;13.10;99.90
18163;DHT22;9206;50.994;4.538;2024-02-15T02:27:58;13.20;99.90
18163;DHT22;9206;50.994;4.538;2024-02-15T02:30:46;13.20;99.90
18163;DHT22;9206;50.994;4.538;2024-02-15T02:33:36;13.20;99.90
18163;DHT22;9206;50.994;4.538;2024-02-15T02:36:25;13.20;99.90
18163;DHT22;9206;50.994;4.538;2024-02-15T02:39:13;13.20;99.90
18163;DHT22;9206;50.994;4.538;2024-02-15T02:42:03;13.30;99.90
18163;DHT22;9206;50.994;4.538;2024-02-15T02:44:53;13.20;99.90
18163;DHT22;9206;50.994;4.538;2024-02-15T02:47:40;13.20;99.90
18163;DHT22;9206;50.994;4.538;2024-02-15T02:50:28;13.20;99.90
18163;DHT22;9206;50.994;4.538;2024-02-15T02:53:17;13.20;99.90
18163;DHT22;9206;50.994;4.538;2024-02-15T02:56:05;13.20;99.90
18163;DHT22;9206;50.994;4.538;2024-02-15T02:58:57;13.10;99.90
18163;DHT22;9206;50.994;4.538;2024-02-15T03:01:44;13.10;99.90
18163;DHT22;9206;50.994;4.538;2024-02-15T03:04:32;13.00;99.90
18163;DHT22;9206;50.994;4.538;2024-02-15T03:07:24;13.00;99.90
18163;DHT22;9206;50.994;4.538;2024-02-15T03:10:14;13.00;99.90
18163;DHT22;9206;50.994;4.538;2024-02-15T03:13:02;12.90;99.90
18163;DHT22;9206;50.994;4.538;2024-02-15T03:15:55;12.90;99.90
18163;DHT22;9206;50.994;4.538;2024-02-15T03:18:44;12.80;99.90
18163;DHT22;9206;50.994;4.538;2024-02-15T03:21:31;12.80;99.90
18163;DHT22;9206;50.994;4.538;2024-02-15T03:24:18;12.70;99.90
18163;DHT22;9206;50.994;4.538;2024-02-15T03:27:07;12.70;99.90
18163;DHT22;9206;50.994;4.538;2024-02-15T03:29:57;12.70;99.90
18163;DHT22;9206;50.994;4.538;2024-02-15T03:32:48;12.60;99.90
18163;DHT22;9206;50.994;4.538;2024-02-15T03:35:39;12.70;99.90
18163;DHT22;9206;50.994;4.538;2024-02-15T03:38:29;12.70;99.90
18163;DHT22;9206;50.994;4.538;2024-02-15T03:41:23;12.60;99.90
18163;DHT22;9206;50.994;4.538;2024-02-15T03:44:11;12.60;99.90
18163;DHT22;9206;50.994;4.538;2024-02-15T03:47:03;12.60;99.90
18163;DHT22;9206;50.994;4.538;2024-02-15T03:49:55;12.50;99.90
18163;DHT22;9206;50.994;4.538;2024-02-15T03:52:45;12.50;99.90
18163;DHT22;9206;50.994;4.538;2024-02-15T03:55:38;12.50;99.90
18163;DHT22;9206;50.994;4.538;2024-02-15T03:58:26;12.50;99.90
18163;DHT22;9206;50.994;4.538;2024-02-15T04:01:16;12.60;99.90
18163;DHT22;9206;50.994;4.538;2024-02-15T04:04:09;12.60;99.90
18163;DHT22;9206;50.994;4.538;2024-02-15T04:07:01;12.50;99.90
18163;DHT22;9206;50.994;4.538;2024-02-15T04:09:49;12.60;99.90
18163;DHT22;9206;50.994;4.538;2024-02-15T04:12:36;12.60;99.90
18163;DHT22;9206;50.994;4.538;2024-02-15T04:15:24;12.50;99.90
18163;DHT22;9206;50.994;4.538;2024-02-15T04:18:14;12.50;99.90
18163;DHT22;9206;50.994;4.538;2024-02-15T04:21:02;12.50;99.90
18163;DHT22;9206;50.994;4.538;2024-02-15T04:23:53;12.60;99.90
18163;DHT22;9206;50.994;4.538;2024-02-15T04:26:43;12.60;99.90
18163;DHT22;9206;50.994;4.538;2024-02-15T04:29:36;12.70;99.90
18163;DHT22;9206;50.994;4.538;2024-02-15T04:32:25;12.70;99.90
18163;DHT22;9206;50.994;4.538;2024-02-15T04:35:17;12.70;99.90
18163;DHT22;9206;50.994;4.538;2024-02-15T04:38:23;12.80;99.90
18163;DHT22;9206;50.994;4.538;2024-02-15T04:41:15;12.70;99.90
18163;DHT22;9206;50.994;4.538;2024-02-15T04:44:06;12.70;99.90
18163;DHT22;9206;50.994;4.538;2024-02-15T04:47:00;12.60;99.90
18163;DHT22;9206;50.994;4.538;2024-02-15T04:49:50;12.60;99.90
18163;DHT22;9206;50.994;4.538;2024-02-15T04:52:40;12.60;99.90
18163;DHT22;9206;50.994;4.538;2024-02-15T04:55:31;12.60;99.90
18163;DHT22;9206;50.994;4.538;2024-02-15T04:58:22;12.40;99.90
18163;DHT22;9206;50.994;4.538;2024-02-15T05:01:13;12.40;99.90
18163;DHT22;9206;50.994;4.538;2024-02-15T05:04:00;12.40;99.90
18163;DHT22;9206;50.994;4.538;2024-02-15T05:06:56;12.40;99.90
18163;DHT22;9206;50.994;4.538;2024-02-15T05:09:43;12.40;99.90
18163;DHT22;9206;50.994;4.538;2024-02-15T05:12:33;12.30;99.90
18163;DHT22;9206;50.994;4.538;2024-02-15T05:15:22;12.30;99.90
18163;DHT22;9206;50.994;4.538;2024-02-15T05:18:14;12.30;99.90
18163;DHT22;9206;50.994;4.538;2024-02-15T05:21:08;12.30;99.90
18163;DHT22;9206;50.994;4.538;2024-02-15T05:23:55;12.30;99.90
18163;DHT22;9206;50.994;4.538;2024-02-15T05:26:45;12.30;99.90
18163;DHT22;9206;50.994;4.538;2024-02-15T05:29:34;12.30;99.90
18163;DHT22;9206;50.994;4.538;2024-02-15T05:32:23;12.20;99.90
18163;DHT22;9206;50.994;4.538;2024-02-15T05:35:12;12.20;99.90
18163;DHT22;9206;50.994;4.538;2024-02-15T05:38:00;12.20;99.90
18163;DHT22;9206;50.994;4.538;2024-02-15T05:40:55;12.20;99.90
18163;DHT22;9206;50.994;4.538;2024-02-15T05:43:46;12.20;99.90
18163;DHT22;9206;50.994;4.538;2024-02-15T05:46:36;12.20;99.90
18163;DHT22;9206;50.994;4.538;2024-02-15T05:49:26;12.20;99.90
18163;DHT22;9206;50.994;4.538;2024-02-15T05:52:13;12.10;99.90
18163;DHT22;9206;50.994;4.538;2024-02-15T05:55:00;12.10;99.90
18163;DHT22;9206;50.994;4.538;2024-02-15T05:57:49;12.10;99.90
18163;DHT22;9206;50.994;4.538;2024-02-15T06:00:37;12.10;99.90
18163;DHT22;9206;50.994;4.538;2024-02-15T06:03:26;12.10;99.90
18163;DHT22;9206;50.994;4.538;2024-02-15T06:06:16;12.20;99.90
18163;DHT22;9206;50.994;4.538;2024-02-15T06:09:05;12.10;99.90
18163;DHT22;9206;50.994;4.538;2024-02-15T06:11:53;12.10;99.90
18163;DHT22;9206;50.994;4.538;2024-02-15T06:14:43;12.10;99.90
18163;DHT22;9206;50.994;4.538;2024-02-15T06:17:30;12.10;99.90
18163;DHT22;9206;50.994;4.538;2024-02-15T06:20:18;12.10;99.90
18163;DHT22;9206;50.994;4.538;2024-02-15T06:23:10;12.10;99.90
18163;DHT22;9206;50.994;4.538;2024-02-15T06:25:57;12.00;99.90
18163;DHT22;9206;50.994;4.538;2024-02-15T06:28:49;12.00;99.90
18163;DHT22;9206;50.994;4.538;2024-02-15T06:31:53;12.10;99.90
18163;DHT22;9206;50.994;4.538;2024-02-15T06:34:58;12.10;99.90
18163;DHT22;9206;50.994;4.538;2024-02-15T06:38:02;12.10;99.90
18163;DHT22;9206;50.994;4.538;2024-02-15T06:41:23;12.10;99.90
18163;DHT22;9206;50.994;4.538;2024-02-15T06:44:13;12.20;99.90
18163;DHT22;9206;50.994;4.538;2024-02-15T06:47:01;12.20;99.90
18163;DHT22;9206;50.994;4.538;2024-02-15T06:49:48;12.20;99.90
18163;DHT22;9206;50.994;4.538;2024-02-15T06:52:40;12.10;99.90
18163;DHT22;9206;50.994;4.538;2024-02-15T06:55:28;12.20;99.90
18163;DHT22;9206;50.994;4.538;2024-02-15T06:58:19;12.10;99.90
18163;DHT22;9206;50.994;4.538;2024-02-15T07:01:11;12.20;99.90
18163;DHT22;9206;50.994;4.538;2024-02-15T07:04:00;12.20;99.90
18163;DHT22;9206;50.994;4.538;2024-02-15T07:06:49;12.20;99.90
18163;DHT22;9206;50.994;4.538;2024-02-15T07:09:37;12.20;99.90
18163;DHT22;9206;50.994;4.538;2024-02-15T07:12:26;12.20;99.90
18163;DHT22;9206;50.994;4.538;2024-02-15T07:15:18;12.20;99.90
18163;DHT22;9206;50.994;4.538;2024-02-15T07:18:08;12.10;99.90
18163;DHT22;9206;50.994;4.538;2024-02-15T07:20:56;12.20;99.90
18163;DHT22;9206;50.994;4.538;2024-02-15T07:23:45;12.20;99.90
18163;DHT22;9206;50.994;4.538;2024-02-15T07:26:35;12.20;99.90
18163;DHT22;9206;50.994;4.538;2024-02-15T07:29:26;12.20;99.90
18163;DHT22;9206;50.994;4.538;2024-02-15T07:32:15;12.30;99.90
18163;DHT22;9206;50.994;4.538;2024-02-15T07:35:04;12.30;99.90
18163;DHT22;9206;50.994;4.538;2024-02-15T07:37:55;12.30;99.90
18163;DHT22;9206;50.994;4.538;2024-02-15T07:40:44;12.30;99.90
18163;DHT22;9206;50.994;4.538;2024-02-15T07:43:32;12.40;99.90
18163;DHT22;9206;50.994;4.538;2024-02-15T07:46:23;12.40;99.90
18163;DHT22;9206;50.994;4.538;2024-02-15T07:49:12;12.40;99.90
18163;DHT22;9206;50.994;4.538;2024-02-15T07:52:01;12.40;99.90
18163;DHT22;9206;50.994;4.538;2024-02-15T07:54:49;12.50;99.90
18163;DHT22;9206;50.994;4.538;2024-02-15T07:57:38;12.50;99.90
18163;DHT22;9206;50.994;4.538;2024-02-15T08:00:25;12.50;99.90
18163;DHT22;9206;50.994;4.538;2024-02-15T08:03:13;12.60;99.90
18163;DHT22;9206;50.994;4.538;2024-02-15T08:06:03;12.60;99.90
18163;DHT22;9206;50.994;4.538;2024-02-15T08:08:55;12.70;99.90
18163;DHT22;9206;50.994;4.538;2024-02-15T08:11:42;12.70;99.90
18163;DHT22;9206;50.994;4.538;2024-02-15T08:14:41;12.80;99.90
18163;DHT22;9206;50.994;4.538;2024-02-15T08:17:32;12.90;99.90
18163;DHT22;9206;50.994;4.538;2024-02-15T08:20:19;12.90;99.90
18163;DHT22;9206;50.994;4.538;2024-02-15T08:23:09;13.00;99.90
18163;DHT22;9206;50.994;4.538;2024-02-15T08:25:59;13.00;99.90
18163;DHT22;9206;50.994;4.538;2024-02-15T08:28:46;13.00;99.90
18163;DHT22;9206;50.994;4.538;2024-02-15T08:31:38;13.00;99.90
18163;DHT22;9206;50.994;4.538;2024-02-15T08:34:28;13.10;99.90
18163;DHT22;9206;50.994;4.538;2024-02-15T08:37:19;13.20;99.90
18163;DHT22;9206;50.994;4.538;2024-02-15T08:40:10;13.30;99.90
18163;DHT22;9206;50.994;4.538;2024-02-15T08:43:03;13.30;99.90
18163;DHT22;9206;50.994;4.538;2024-02-15T08:45:52;13.30;99.90
18163;DHT22;9206;50.994;4.538;2024-02-15T08:48:40;13.50;99.90
18163;DHT22;9206;50.994;4.538;2024-02-15T08:51:29;13.60;99.90
18163;DHT22;9206;50.994;4.538;2024-02-15T08:54:18;13.70;99.90
18163;DHT22;9206;50.994;4.538;2024-02-15T08:57:14;13.90;99.90
18163;DHT22;9206;50.994;4.538;2024-02-15T09:00:06;13.90;99.90
18163;DHT22;9206;50.994;4.538;2024-02-15T09:03:02;14.00;99.90
18163;DHT22;9206;50.994;4.538;2024-02-15T09:05:49;14.10;99.90
18163;DHT22;9206;50.994;4.538;2024-02-15T09:08:42;14.20;99.90
18163;DHT22;9206;50.994;4.538;2024-02-15T09:11:31;14.30;99.90
18163;DHT22;9206;50.994;4.538;2024-02-15T09:14:21;14.40;99.90
18163;DHT22;9206;50.994;4.538;2024-02-15T09:17:11;14.50;99.90
18163;DHT22;9206;50.994;4.538;2024-02-15T09:19:58;14.60;99.90
18163;DHT22;9206;50.994;4.538;2024-02-15T09:22:48;14.70;99.90
18163;DHT22;9206;50.994;4.538;2024-02-15T09:25:38;14.80;99.90
18163;DHT22;9206;50.994;4.538;2024-02-15T09:28:28;15.10;99.90
18163;DHT22;9206;50.994;4.538;2024-02-15T09:31:20;15.30;99.90
18163;DHT22;9206;50.994;4.538;2024-02-15T09:34:10;15.50;99.90
18163;DHT22;9206;50.994;4.538;2024-02-15T09:37:00;15.70;99.90
18163;DHT22;9206;50.994;4.538;2024-02-15T09:39:47;15.70;99.90
18163;DHT22;9206;50.994;4.538;2024-02-15T09:42:34;15.80;99.90
18163;DHT22;9206;50.994;4.538;2024-02-15T09:45:21;15.80;99.90
18163;DHT22;9206;50.994;4.538;2024-02-15T09:48:14;15.90;99.90
18163;DHT22;9206;50.994;4.538;2024-02-15T09:51:10;15.90;99.90
18163;DHT22;9206;50.994;4.538;2024-02-15T09:54:03;15.80;99.90
18163;DHT22;9206;50.994;4.538;2024-02-15T09:56:54;15.80;99.90
18163;DHT22;9206;50.994;4.538;2024-02-15T09:59:45;16.00;99.90
18163;DHT22;9206;50.994;4.538;2024-02-15T10:02:32;16.30;99.90
18163;DHT22;9206;50.994;4.538;2024-02-15T10:05:23;16.50;99.90
18163;DHT22;9206;50.994;4.538;2024-02-15T10:08:14;16.50;99.90
18163;DHT22;9206;50.994;4.538;2024-02-15T10:11:07;16.70;99.90
18163;DHT22;9206;50.994;4.538;2024-02-15T10:14:10;16.70;99.90
18163;DHT22;9206;50.994;4.538;2024-02-15T10:17:06;16.60;99.90
18163;DHT22;9206;50.994;4.538;2024-02-15T10:20:05;16.50;99.90
18163;DHT22;9206;50.994;4.538;2024-02-15T10:23:11;16.40;99.90
18163;DHT22;9206;50.994;4.538;2024-02-15T10:25:58;16.30;99.90
18163;DHT22;9206;50.994;4.538;2024-02-15T10:29:05;16.20;99.90
18163;DHT22;9206;50.994;4.538;2024-02-15T10:31:57;16.20;99.90
18163;DHT22;9206;50.994;4.538;2024-02-15T10:34:45;16.10;99.90
18163;DHT22;9206;50.994;4.538;2024-02-15T10:37:33;16.10;99.90
18163;DHT22;9206;50.994;4.538;2024-02-15T10:40:24;16.10;99.90
18163;DHT22;9206;50.994;4.538;2024-02-15T10:43:11;16.00;99.90
18163;DHT22;9206;50.994;4.538;2024-02-15T10:46:04;16.10;99.90
18163;DHT22;9206;50.994;4.538;2024-02-15T10:48:55;16.40;99.90
18163;DHT22;9206;50.994;4.538;2024-02-15T10:51:44;16.60;99.90
18163;DHT22;9206;50.994;4.538;2024-02-15T10:54:47;16.90;99.90
18163;DHT22;9206;50.994;4.538;2024-02-15T10:57:46;17.20;99.90
18163;DHT22;9206;50.994;4.538;2024-02-15T11:00:38;17.70;99.90
18163;DHT22;9206;50.994;4.538;2024-02-15T11:03:34;18.40;99.90
18163;DHT22;9206;50.994;4.538;2024-02-15T11:06:23;19.00;99.90
18163;DHT22;9206;50.994;4.538;2024-02-15T11:09:14;19.20;99.90
18163;DHT22;9206;50.994;4.538;2024-02-15T11:12:02;19.50;99.90
18163;DHT22;9206;50.994;4.538;2024-02-15T11:14:54;19.60;99.90
18163;DHT22;9206;50.994;4.538;2024-02-15T11:17:47;19.60;99.90
18163;DHT22;9206;50.994;4.538;2024-02-15T11:20:50;19.50;99.90
18163;DHT22;9206;50.994;4.538;2024-02-15T11:23:39;19.00;99.90
18163;DHT22;9206;50.994;4.538;2024-02-15T11:26:50;18.70;99.90
18163;DHT22;9206;50.994;4.538;2024-02-15T11:29:53;18.50;99.90
18163;DHT22;9206;50.994;4.538;2024-02-15T11:32:46;18.50;99.90
18163;DHT22;9206;50.994;4.538;2024-02-15T11:35:35;19.00;99.90
18163;DHT22;9206;50.994;4.538;2024-02-15T11:38:28;19.10;99.90
18163;DHT22;9206;50.994;4.538;2024-02-15T11:41:18;19.40;99.90
18163;DHT22;9206;50.994;4.538;2024-02-15T11:44:09;19.60;99.90
18163;DHT22;9206;50.994;4.538;2024-02-15T11:46:57;19.70;99.90
18163;DHT22;9206;50.994;4.538;2024-02-15T11:49:54;20.00;99.90
18163;DHT22;9206;50.994;4.538;2024-02-15T11:52:45;19.80;99.90
18163;DHT22;9206;50.994;4.538;2024-02-15T11:55:37;19.30;99.90
18163;DHT22;9206;50.994;4.538;2024-02-15T11:58:32;19.20;99.90
18163;DHT22;9206;50.994;4.538;2024-02-15T12:01:31;18.80;99.90
18163;DHT22;9206;50.994;4.538;2024-02-15T12:08:06;18.50;99.90
18163;DHT22;9206;50.994;4.538;2024-02-15T12:11:14;18.40;99.90
18163;DHT22;9206;50.994;4.538;2024-02-15T12:14:21;18.50;99.90
18163;DHT22;9206;50.994;4.538;2024-02-15T12:20:55;18.60;99.90
18163;DHT22;9206;50.994;4.538;2024-02-15T12:24:03;18.80;99.90
18163;DHT22;9206;50.994;4.538;2024-02-15T12:26:51;18.40;99.90
18163;DHT22;9206;50.994;4.538;2024-02-15T12:29:44;18.20;99.90
18163;DHT22;9206;50.994;4.538;2024-02-15T12:32:38;18.00;99.90
18163;DHT22;9206;50.994;4.538;2024-02-15T12:35:28;17.80;99.90
18163;DHT22;9206;50.994;4.538;2024-02-15T12:38:18;17.70;99.90
18163;DHT22;9206;50.994;4.538;2024-02-15T12:41:21;17.50;99.90
18163;DHT22;9206;50.994;4.538;2024-02-15T12:44:09;17.40;99.90
18163;DHT22;9206;50.994;4.538;2024-02-15T12:46:57;17.30;99.90
18163;DHT22;9206;50.994;4.538;2024-02-15T12:49:49;17.20;99.90
18163;DHT22;9206;50.994;4.538;2024-02-15T12:52:39;17.10;99.90
18163;DHT22;9206;50.994;4.538;2024-02-15T12:55:31;17.20;99.90
18163;DHT22;9206;50.994;4.538;2024-02-15T12:58:24;17.20;99.90
18163;DHT22;9206;50.994;4.538;2024-02-15T13:01:13;17.40;99.90
18163;DHT22;9206;50.994;4.538;2024-02-15T13:04:00;17.70;99.90
18163;DHT22;9206;50.994;4.538;2024-02-15T13:06:48;17.80;99.90
18163;DHT22;9206;50.994;4.538;2024-02-15T13:09:38;17.90;99.90
18163;DHT22;9206;50.994;4.538;2024-02-15T13:12:27;18.20;99.90
18163;DHT22;9206;50.994;4.538;2024-02-15T13:15:17;18.40;99.90
18163;DHT22;9206;50.994;4.538;2024-02-15T13:18:10;18.70;99.90
18163;DHT22;9206;50.994;4.538;2024-02-15T13:21:00;18.70;99.90
18163;DHT22;9206;50.994;4.538;2024-02-15T13:23:50;18.80;99.90
18163;DHT22;9206;50.994;4.538;2024-02-15T13:26:38;18.70;99.90
18163;DHT22;9206;50.994;4.538;2024-02-15T13:29:29;18.60;99.90
18163;DHT22;9206;50.994;4.538;2024-02-15T13:32:22;18.70;99.90
18163;DHT22;9206;50.994;4.538;2024-02-15T13:35:11;18.70;99.90
18163;DHT22;9206;50.994;4.538;2024-02-15T13:38:02;18.70;99.90
18163;DHT22;9206;50.994;4.538;2024-02-15T13:40:50;18.70;99.90
18163;DHT22;9206;50.994;4.538;2024-02-15T13:43:39;18.80;99.90
18163;DHT22;9206;50.994;4.538;2024-02-15T13:46:27;18.70;99.90
18163;DHT22;9206;50.994;4.538;2024-02-15T13:49:18;18.80;99.90
18163;DHT22;9206;50.994;4.538;2024-02-15T13:52:26;18.80;99.90
18163;DHT22;9206;50.994;4.538;2024-02-15T13:55:14;18.60;99.90
18163;DHT22;9206;50.994;4.538;2024-02-15T13:58:21;18.60;99.90
18163;DHT22;9206;50.994;4.538;2024-02-15T14:01:09;18.60;99.90
18163;DHT22;9206;50.994;4.538;2024-02-15T14:04:01;18.90;99.90
18163;DHT22;9206;50.994;4.538;2024-02-15T14:06:54;19.90;99.90
18163;DHT22;9206;50.994;4.538;2024-02-15T14:09:44;20.50;99.90
18163;DHT22;9206;50.994;4.538;2024-02-15T14:15:41;20.20;99.90
18163;DHT22;9206;50.994;4.538;2024-02-15T14:18:31;20.00;99.90
18163;DHT22;9206;50.994;4.538;2024-02-15T14:21:22;19.80;99.90
18163;DHT22;9206;50.994;4.538;2024-02-15T14:24:15;19.70;99.90
18163;DHT22;9206;50.994;4.538;2024-02-15T14:27:10;19.40;99.90
18163;DHT22;9206;50.994;4.538;2024-02-15T14:30:00;19.00;99.90
18163;DHT22;9206;50.994;4.538;2024-02-15T14:33:07;18.70;99.90
18163;DHT22;9206;50.994;4.538;2024-02-15T14:36:00;18.50;99.90
18163;DHT22;9206;50.994;4.538;2024-02-15T14:41:57;18.50;99.90
18163;DHT22;9206;50.994;4.538;2024-02-15T14:44:45;18.40;99.90
18163;DHT22;9206;50.994;4.538;2024-02-15T14:47:33;18.30;99.90
18163;DHT22;9206;50.994;4.538;2024-02-15T14:50:22;18.20;99.90
18163;DHT22;9206;50.994;4.538;2024-02-15T14:53:10;18.00;99.90
18163;DHT22;9206;50.994;4.538;2024-02-15T14:55:57;18.00;99.90
18163;DHT22;9206;50.994;4.538;2024-02-15T14:58:45;17.90;99.90
18163;DHT22;9206;50.994;4.538;2024-02-15T15:01:33;17.80;99.90
18163;DHT22;9206;50.994;4.538;2024-02-15T15:04:23;17.90;99.90
18163;DHT22;9206;50.994;4.538;2024-02-15T15:07:12;17.90;99.90
18163;DHT22;9206;50.994;4.538;2024-02-15T15:10:22;17.80;99.90
18163;DHT22;9206;50.994;4.538;2024-02-15T15:13:28;17.70;99.90
18163;DHT22;9206;50.994;4.538;2024-02-15T15:16:20;17.70;99.90
18163;DHT22;9206;50.994;4.538;2024-02-15T15:19:10;17.50;99.90
18163;DHT22;9206;50.994;4.538;2024-02-15T15:22:11;17.50;99.90
18163;DHT22;9206;50.994;4.538;2024-02-15T15:24:58;17.50;99.90
18163;DHT22;9206;50.994;4.538;2024-02-15T15:27:46;17.40;99.90
18163;DHT22;9206;50.994;4.538;2024-02-15T15:30:35;17.40;99.90
18163;DHT22;9206;50.994;4.538;2024-02-15T15:33:26;17.40;99.90
18163;DHT22;9206;50.994;4.538;2024-02-15T15:36:15;17.40;99.90
18163;DHT22;9206;50.994;4.538;2024-02-15T15:39:05;17.50;99.90
18163;DHT22;9206;50.994;4.538;2024-02-15T15:41:57;17.50;99.90
18163;DHT22;9206;50.994;4.538;2024-02-15T15:44:44;17.50;99.90
18163;DHT22;9206;50.994;4.538;2024-02-15T15:47:32;17.60;99.90
18163;DHT22;9206;50.994;4.538;2024-02-15T15:50:24;17.60;99.90
18163;DHT22;9206;50.994;4.538;2024-02-15T15:53:12;17.50;99.90
18163;DHT22;9206;50.994;4.538;2024-02-15T15:56:05;17.40;99.90
18163;DHT22;9206;50.994;4.538;2024-02-15T15:58:55;17.30;99.90
18163;DHT22;9206;50.994;4.538;2024-02-15T16:01:47;17.10;99.90
18163;DHT22;9206;50.994;4.538;2024-02-15T16:04:42;17.00;99.90
18163;DHT22;9206;50.994;4.538;2024-02-15T16:07:32;16.90;99.90
18163;DHT22;9206;50.994;4.538;2024-02-15T16:10:19;16.80;99.90
18163;DHT22;9206;50.994;4.538;2024-02-15T16:13:24;16.60;99.90
18163;DHT22;9206;50.994;4.538;2024-02-15T16:16:18;16.50;99.90
18163;DHT22;9206;50.994;4.538;2024-02-15T16:25:26;16.00;99.90
18163;DHT22;9206;50.994;4.538;2024-02-15T16:28:14;15.90;99.90
18163;DHT22;9206;50.994;4.538;2024-02-15T16:31:02;15.70;99.90
18163;DHT22;9206;50.994;4.538;2024-02-15T16:33:52;15.70;99.90
18163;DHT22;9206;50.994;4.538;2024-02-15T16:36:42;15.70;99.90
18163;DHT22;9206;50.994;4.538;2024-02-15T16:39:33;15.60;99.90
18163;DHT22;9206;50.994;4.538;2024-02-15T16:42:22;15.50;99.90
18163;DHT22;9206;50.994;4.538;2024-02-15T16:45:12;15.50;99.90
18163;DHT22;9206;50.994;4.538;2024-02-15T16:48:00;15.50;99.90
18163;DHT22;9206;50.994;4.538;2024-02-15T16:50:55;15.50;99.90
18163;DHT22;9206;50.994;4.538;2024-02-15T16:53:46;15.40;99.90
18163;DHT22;9206;50.994;4.538;2024-02-15T16:56:36;15.40;99.90
18163;DHT22;9206;50.994;4.538;2024-02-15T16:59:28;15.40;99.90
18163;DHT22;9206;50.994;4.538;2024-02-15T17:02:23;15.40;99.90
18163;DHT22;9206;50.994;4.538;2024-02-15T17:05:11;15.30;99.90
18163;DHT22;9206;50.994;4.538;2024-02-15T17:07:58;15.30;99.90
18163;DHT22;9206;50.994;4.538;2024-02-15T17:10:47;15.30;99.90
18163;DHT22;9206;50.994;4.538;2024-02-15T17:13:51;15.20;99.90
18163;DHT22;9206;50.994;4.538;2024-02-15T17:17:03;15.20;99.90
18163;DHT22;9206;50.994;4.538;2024-02-15T17:19:53;15.20;99.90
18163;DHT22;9206;50.994;4.538;2024-02-15T17:23:00;15.10;99.90
18163;DHT22;9206;50.994;4.538;2024-02-15T17:25:50;15.00;99.90
18163;DHT22;9206;50.994;4.538;2024-02-15T17:28:40;15.00;99.90
18163;DHT22;9206;50.994;4.538;2024-02-15T17:31:27;15.00;99.90
18163;DHT22;9206;50.994;4.538;2024-02-15T17:34:15;15.00;99.90
18163;DHT22;9206;50.994;4.538;2024-02-15T17:37:03;14.90;99.90
18163;DHT22;9206;50.994;4.538;2024-02-15T17:39:54;14.90;99.90
18163;DHT22;9206;50.994;4.538;2024-02-15T17:42:44;14.90;99.90
18163;DHT22;9206;50.994;4.538;2024-02-15T17:45:34;14.90;99.90
18163;DHT22;9206;50.994;4.538;2024-02-15T17:48:22;14.80;99.90
18163;DHT22;9206;50.994;4.538;2024-02-15T17:51:15;14.80;99.90
18163;DHT22;9206;50.994;4.538;2024-02-15T17:54:05;14.80;99.90
18163;DHT22;9206;50.994;4.538;2024-02-15T17:56:53;14.70;99.90
18163;DHT22;9206;50.994;4.538;2024-02-15T17:59:40;14.70;99.90
18163;DHT22;9206;50.994;4.538;2024-02-15T18:02:28;14.60;99.90
18163;DHT22;9206;50.994;4.538;2024-02-15T18:05:22;14.60;99.90
18163;DHT22;9206;50.994;4.538;2024-02-15T18:08:10;14.60;99.90
18163;DHT22;9206;50.994;4.538;2024-02-15T18:10:59;14.60;99.90
18163;DHT22;9206;50.994;4.538;2024-02-15T18:16:55;14.50;99.90
18163;DHT22;9206;50.994;4.538;2024-02-15T18:19:46;14.50;99.90
18163;DHT22;9206;50.994;4.538;2024-02-15T18:22:36;14.50;99.90
18163;DHT22;9206;50.994;4.538;2024-02-15T18:25:45;14.40;99.90
18163;DHT22;9206;50.994;4.538;2024-02-15T18:28:52;14.30;99.90
18163;DHT22;9206;50.994;4.538;2024-02-15T18:31:42;14.30;99.90
18163;DHT22;9206;50.994;4.538;2024-02-15T18:34:50;14.30;99.90
18163;DHT22;9206;50.994;4.538;2024-02-15T18:37:41;14.20;99.90
18163;DHT22;9206;50.994;4.538;2024-02-15T18:40:32;14.20;99.90